CheckWX is a tool to help pilots better visualize weather data.  It is not intended as a substitute for an official pre-flight weather briefing.

09:02:51 UTC

KTOB METAR
Dodge Center Airport
Dodge Center, Minnesota, USA
Current

8 mins ago

KTOB 220855Z AUTO 00000KT 7SM SCT085 SCT090 M13/M15 A3035 RMK AO2
Observed
Feb-22 @ 08:55 UTC
Visibility
7 SM
Flight Rules
VFR
Cloud Levels
  • Scattered at 8,500' AGL
  • Scattered at 9,000' AGL
Temperature
-13°C / 9°F
Dewpoint
-15°C / 5°F
Humidity
85%
Altimeter
30.35" Hg
Pressure
1027.82 hPa
Previous

27 mins ago

KTOB 220836Z AUTO 00000KT 7SM SCT085 M14/M16 A3035 RMK AO2
Observed
Feb-22 @ 08:36 UTC
Visibility
7 SM
Flight Rules
VFR
Cloud Levels
  • Scattered at 8,500' AGL
Temperature
-14°C / 7°F
Dewpoint
-16°C / 3°F
Humidity
85%
Altimeter
30.35" Hg
Pressure
1027.82 hPa
Previous

28 mins ago

KTOB 220835Z AUTO 00000KT 7SM SCT085 M14/M16 A3035 RMK AO2
Observed
Feb-22 @ 08:35 UTC
Visibility
7 SM
Flight Rules
VFR
Cloud Levels
  • Scattered at 8,500' AGL
Temperature
-14°C / 7°F
Dewpoint
-16°C / 3°F
Humidity
85%
Altimeter
30.35" Hg
Pressure
1027.82 hPa